sensor_id;sensor_type;location;lat;lon;timestamp;pressure;altitude;pressure_sealevel;temperature;humidity
80333;BME280;69652;51.864;-2.246;2024-01-10T00:01:22;103132.91;;;1.03;81.86
80333;BME280;69652;51.864;-2.246;2024-01-10T00:03:52;103131.06;;;1.03;82.26
80333;BME280;69652;51.864;-2.246;2024-01-10T00:06:18;103126.91;;;1.01;82.01
80333;BME280;69652;51.864;-2.246;2024-01-10T00:08:43;103136.75;;;1.00;81.88
80333;BME280;69652;51.864;-2.246;2024-01-10T00:11:09;103121.19;;;1.04;82.93
80333;BME280;69652;51.864;-2.246;2024-01-10T00:13:34;103122.38;;;1.01;82.44
80333;BME280;69652;51.864;-2.246;2024-01-10T00:16:00;103116.88;;;1.03;82.33
80333;BME280;69652;51.864;-2.246;2024-01-10T00:18:26;103113.34;;;1.02;82.61
80333;BME280;69652;51.864;-2.246;2024-01-10T00:20:51;103116.03;;;1.02;82.67
80333;BME280;69652;51.864;-2.246;2024-01-10T00:23:20;103111.50;;;1.03;82.99
80333;BME280;69652;51.864;-2.246;2024-01-10T00:25:46;103107.19;;;1.02;83.11
80333;BME280;69652;51.864;-2.246;2024-01-10T00:28:12;103096.84;;;0.99;82.91
80333;BME280;69652;51.864;-2.246;2024-01-10T00:30:38;103095.66;;;1.01;83.00
80333;BME280;69652;51.864;-2.246;2024-01-10T00:33:04;103097.13;;;1.04;82.75
80333;BME280;69652;51.864;-2.246;2024-01-10T00:35:30;103093.63;;;1.03;82.98
80333;BME280;69652;51.864;-2.246;2024-01-10T00:37:56;103086.63;;;1.02;82.77
80333;BME280;69652;51.864;-2.246;2024-01-10T00:40:22;103094.63;;;1.02;82.98
80333;BME280;69652;51.864;-2.246;2024-01-10T00:42:48;103088.47;;;1.02;83.46
80333;BME280;69652;51.864;-2.246;2024-01-10T00:45:14;103101.34;;;0.98;82.70
80333;BME280;69652;51.864;-2.246;2024-01-10T00:47:39;103089.81;;;0.98;83.09
80333;BME280;69652;51.864;-2.246;2024-01-10T00:50:05;103086.50;;;0.96;83.29
80333;BME280;69652;51.864;-2.246;2024-01-10T00:52:31;103089.81;;;0.98;83.29
80333;BME280;69652;51.864;-2.246;2024-01-10T00:54:57;103086.13;;;0.99;84.18
80333;BME280;69652;51.864;-2.246;2024-01-10T00:57:22;103087.09;;;1.06;83.35
80333;BME280;69652;51.864;-2.246;2024-01-10T00:59:48;103090.13;;;1.03;83.85
80333;BME280;69652;51.864;-2.246;2024-01-10T01:02:13;103089.47;;;1.01;84.17
80333;BME280;69652;51.864;-2.246;2024-01-10T01:04:39;103085.22;;;0.92;83.19
80333;BME280;69652;51.864;-2.246;2024-01-10T01:07:04;103088.53;;;0.94;84.29
80333;BME280;69652;51.864;-2.246;2024-01-10T01:09:30;103086.69;;;0.94;84.35
80333;BME280;69652;51.864;-2.246;2024-01-10T01:11:55;103084.19;;;0.93;84.10
80333;BME280;69652;51.864;-2.246;2024-01-10T01:14:21;103083.38;;;0.92;84.39
80333;BME280;69652;51.864;-2.246;2024-01-10T01:16:46;103089.72;;;0.91;84.38
80333;BME280;69652;51.864;-2.246;2024-01-10T01:19:12;103081.06;;;0.89;84.17
80333;BME280;69652;51.864;-2.246;2024-01-10T01:21:37;103075.88;;;0.88;84.63
80333;BME280;69652;51.864;-2.246;2024-01-10T01:24:03;103078.06;;;0.84;84.05
80333;BME280;69652;51.864;-2.246;2024-01-10T01:26:29;103087.94;;;0.84;83.75
80333;BME280;69652;51.864;-2.246;2024-01-10T01:28:54;103074.41;;;0.85;84.81
80333;BME280;69652;51.864;-2.246;2024-01-10T01:31:20;103071.91;;;0.84;84.89
80333;BME280;69652;51.864;-2.246;2024-01-10T01:33:45;103067.78;;;0.81;84.70
80333;BME280;69652;51.864;-2.246;2024-01-10T01:36:11;103068.59;;;0.82;85.03
80333;BME280;69652;51.864;-2.246;2024-01-10T01:38:36;103065.28;;;0.80;84.73
80333;BME280;69652;51.864;-2.246;2024-01-10T01:41:02;103065.28;;;0.80;84.87
80333;BME280;69652;51.864;-2.246;2024-01-10T01:43:28;103062.13;;;0.76;84.66
80333;BME280;69652;51.864;-2.246;2024-01-10T01:45:54;103070.16;;;0.76;85.03
80333;BME280;69652;51.864;-2.246;2024-01-10T01:48:21;103080.34;;;0.72;84.94
80333;BME280;69652;51.864;-2.246;2024-01-10T01:50:50;103065.97;;;0.73;84.58
80333;BME280;69652;51.864;-2.246;2024-01-10T01:53:17;103071.97;;;0.76;84.11
80333;BME280;69652;51.864;-2.246;2024-01-10T01:55:44;103067.47;;;0.76;83.84
80333;BME280;69652;51.864;-2.246;2024-01-10T01:58:10;103068.13;;;0.78;84.13
80333;BME280;69652;51.864;-2.246;2024-01-10T02:00:37;103061.13;;;0.77;84.70
80333;BME280;69652;51.864;-2.246;2024-01-10T02:03:05;103067.94;;;0.80;84.46
80333;BME280;69652;51.864;-2.246;2024-01-10T02:05:32;103078.63;;;0.80;84.90
80333;BME280;69652;51.864;-2.246;2024-01-10T02:07:58;103079.28;;;0.82;85.09
80333;BME280;69652;51.864;-2.246;2024-01-10T02:10:23;103071.63;;;0.79;84.86
80333;BME280;69652;51.864;-2.246;2024-01-10T02:12:49;103077.50;;;0.74;84.58
80333;BME280;69652;51.864;-2.246;2024-01-10T02:15:15;103075.66;;;0.75;84.71
80333;BME280;69652;51.864;-2.246;2024-01-10T02:17:40;103069.66;;;0.72;84.91
80333;BME280;69652;51.864;-2.246;2024-01-10T02:20:14;103075.13;;;0.79;85.67
80333;BME280;69652;51.864;-2.246;2024-01-10T02:22:43;103076.50;;;0.75;85.11
80333;BME280;69652;51.864;-2.246;2024-01-10T02:25:10;103072.34;;;0.72;85.78
80333;BME280;69652;51.864;-2.246;2024-01-10T02:27:36;103074.38;;;0.70;84.94
80333;BME280;69652;51.864;-2.246;2024-01-10T02:30:03;103077.69;;;0.72;85.34
80333;BME280;69652;51.864;-2.246;2024-01-10T02:32:30;103079.34;;;0.73;85.00
80333;BME280;69652;51.864;-2.246;2024-01-10T02:34:56;103082.03;;;0.73;85.72
80333;BME280;69652;51.864;-2.246;2024-01-10T02:37:22;103081.56;;;0.70;85.31
80333;BME280;69652;51.864;-2.246;2024-01-10T02:39:48;103084.41;;;0.68;85.38
80333;BME280;69652;51.864;-2.246;2024-01-10T02:42:13;103080.53;;;0.71;85.49
80333;BME280;69652;51.864;-2.246;2024-01-10T02:44:39;103073.56;;;0.70;85.62
80333;BME280;69652;51.864;-2.246;2024-01-10T02:47:05;103081.09;;;0.66;85.22
80333;BME280;69652;51.864;-2.246;2024-01-10T02:49:32;103083.75;;;0.66;85.33
80333;BME280;69652;51.864;-2.246;2024-01-10T02:51:57;103081.63;;;0.62;85.19
80333;BME280;69652;51.864;-2.246;2024-01-10T02:54:23;103085.94;;;0.63;85.51
80333;BME280;69652;51.864;-2.246;2024-01-10T02:56:49;103086.31;;;0.60;85.38
80333;BME280;69652;51.864;-2.246;2024-01-10T02:59:14;103086.50;;;0.58;85.38
80333;BME280;69652;51.864;-2.246;2024-01-10T03:01:40;103082.00;;;0.59;85.89
80333;BME280;69652;51.864;-2.246;2024-01-10T03:04:05;103088.53;;;0.56;85.60
80333;BME280;69652;51.864;-2.246;2024-01-10T03:06:31;103083.84;;;0.58;85.96
80333;BME280;69652;51.864;-2.246;2024-01-10T03:08:56;103091.19;;;0.56;85.76
80333;BME280;69652;51.864;-2.246;2024-01-10T03:11:22;103093.03;;;0.56;86.36
80333;BME280;69652;51.864;-2.246;2024-01-10T03:13:49;103092.38;;;0.54;86.41
80333;BME280;69652;51.864;-2.246;2024-01-10T03:16:15;103093.22;;;0.54;85.86
80333;BME280;69652;51.864;-2.246;2024-01-10T03:18:41;103079.00;;;0.54;85.83
80333;BME280;69652;51.864;-2.246;2024-01-10T03:21:06;103077.53;;;0.51;85.86
80333;BME280;69652;51.864;-2.246;2024-01-10T03:23:32;103080.19;;;0.51;85.46
80333;BME280;69652;51.864;-2.246;2024-01-10T03:25:58;103083.88;;;0.50;85.84
80333;BME280;69652;51.864;-2.246;2024-01-10T03:28:23;103081.22;;;0.50;85.87
80333;BME280;69652;51.864;-2.246;2024-01-10T03:30:49;103086.69;;;0.57;86.74
80333;BME280;69652;51.864;-2.246;2024-01-10T03:33:15;103089.88;;;0.52;86.27
80333;BME280;69652;51.864;-2.246;2024-01-10T03:35:41;103086.19;;;0.53;86.75
80333;BME280;69652;51.864;-2.246;2024-01-10T03:38:07;103085.88;;;0.48;86.51
80333;BME280;69652;51.864;-2.246;2024-01-10T03:40:33;103086.94;;;0.47;86.51
80333;BME280;69652;51.864;-2.246;2024-01-10T03:42:58;103076.69;;;0.51;86.87
80333;BME280;69652;51.864;-2.246;2024-01-10T03:45:24;103082.38;;;0.48;85.97
80333;BME280;69652;51.864;-2.246;2024-01-10T03:47:50;103078.53;;;0.50;85.95
80333;BME280;69652;51.864;-2.246;2024-01-10T03:50:19;103074.38;;;0.48;86.21
80333;BME280;69652;51.864;-2.246;2024-01-10T03:52:46;103077.03;;;0.48;85.87
80333;BME280;69652;51.864;-2.246;2024-01-10T03:55:12;103078.09;;;0.47;85.87
80333;BME280;69652;51.864;-2.246;2024-01-10T03:57:41;103079.00;;;0.54;86.55
80333;BME280;69652;51.864;-2.246;2024-01-10T04:00:08;103080.84;;;0.53;86.11
80333;BME280;69652;51.864;-2.246;2024-01-10T04:02:34;103076.69;;;0.51;86.31
80333;BME280;69652;51.864;-2.246;2024-01-10T04:05:00;103081.50;;;0.55;86.87
80333;BME280;69652;51.864;-2.246;2024-01-10T04:07:27;103072.84;;;0.53;87.11
80333;BME280;69652;51.864;-2.246;2024-01-10T04:09:53;103077.44;;;0.59;87.18
80333;BME280;69652;51.864;-2.246;2024-01-10T04:12:18;103084.47;;;0.60;86.66
80333;BME280;69652;51.864;-2.246;2024-01-10T04:14:44;103075.09;;;0.64;86.70
80333;BME280;69652;51.864;-2.246;2024-01-10T04:17:09;103075.75;;;0.66;86.28
80333;BME280;69652;51.864;-2.246;2024-01-10T04:19:35;103077.41;;;0.67;85.79
80333;BME280;69652;51.864;-2.246;2024-01-10T04:22:01;103076.22;;;0.70;85.69
80333;BME280;69652;51.864;-2.246;2024-01-10T04:24:26;103075.31;;;0.78;86.18
80333;BME280;69652;51.864;-2.246;2024-01-10T04:26:52;103078.91;;;0.85;86.63
80333;BME280;69652;51.864;-2.246;2024-01-10T04:29:17;103070.78;;;0.78;86.21
80333;BME280;69652;51.864;-2.246;2024-01-10T04:31:43;103076.50;;;0.75;86.45
80333;BME280;69652;51.864;-2.246;2024-01-10T04:34:09;103075.59;;;0.83;86.66
80333;BME280;69652;51.864;-2.246;2024-01-10T04:36:34;103065.09;;;0.81;86.14
80333;BME280;69652;51.864;-2.246;2024-01-10T04:39:00;103075.41;;;0.84;86.55
80333;BME280;69652;51.864;-2.246;2024-01-10T04:41:25;103074.41;;;0.85;86.00
80333;BME280;69652;51.864;-2.246;2024-01-10T04:43:51;103068.16;;;0.93;86.53
80333;BME280;69652;51.864;-2.246;2024-01-10T04:46:17;103075.78;;;0.96;86.21
80333;BME280;69652;51.864;-2.246;2024-01-10T04:48:42;103061.81;;;0.94;85.66
80333;BME280;69652;51.864;-2.246;2024-01-10T04:51:08;103061.91;;;1.00;86.48
80333;BME280;69652;51.864;-2.246;2024-01-10T04:53:33;103065.75;;;0.98;85.64
80333;BME280;69652;51.864;-2.246;2024-01-10T04:55:59;103062.72;;;1.01;85.89
80333;BME280;69652;51.864;-2.246;2024-01-10T04:58:25;103059.69;;;1.04;86.07
80333;BME280;69652;51.864;-2.246;2024-01-10T05:00:51;103071.41;;;1.03;85.77
80333;BME280;69652;51.864;-2.246;2024-01-10T05:03:16;103061.16;;;1.06;86.13
80333;BME280;69652;51.864;-2.246;2024-01-10T05:05:42;103058.22;;;1.16;86.29
80333;BME280;69652;51.864;-2.246;2024-01-10T05:08:07;103069.84;;;1.23;86.04
80333;BME280;69652;51.864;-2.246;2024-01-10T05:10:33;103059.16;;;1.23;85.83
80333;BME280;69652;51.864;-2.246;2024-01-10T05:12:59;103060.81;;;1.24;85.74
80333;BME280;69652;51.864;-2.246;2024-01-10T05:15:24;103064.78;;;1.28;86.18
80333;BME280;69652;51.864;-2.246;2024-01-10T05:17:50;103060.28;;;1.29;85.66
80333;BME280;69652;51.864;-2.246;2024-01-10T05:20:15;103062.72;;;1.30;85.53
80333;BME280;69652;51.864;-2.246;2024-01-10T05:22:42;103067.06;;;1.31;85.94
80333;BME280;69652;51.864;-2.246;2024-01-10T05:25:08;103059.88;;;1.32;85.62
80333;BME280;69652;51.864;-2.246;2024-01-10T05:27:33;103060.34;;;1.35;85.75
80333;BME280;69652;51.864;-2.246;2024-01-10T05:29:59;103062.66;;;1.38;85.32
80333;BME280;69652;51.864;-2.246;2024-01-10T05:32:27;103062.31;;;1.41;85.46
80333;BME280;69652;51.864;-2.246;2024-01-10T05:34:54;103057.38;;;1.45;85.55
80333;BME280;69652;51.864;-2.246;2024-01-10T05:37:20;103060.91;;;1.45;84.74
80333;BME280;69652;51.864;-2.246;2024-01-10T05:39:45;103064.50;;;1.53;85.21
80333;BME280;69652;51.864;-2.246;2024-01-10T05:42:11;103061.84;;;1.53;84.84
80333;BME280;69652;51.864;-2.246;2024-01-10T05:44:36;103058.50;;;1.51;85.33
80333;BME280;69652;51.864;-2.246;2024-01-10T05:47:02;103058.69;;;1.49;85.00
80333;BME280;69652;51.864;-2.246;2024-01-10T05:49:28;103057.03;;;1.48;85.28
80333;BME280;69652;51.864;-2.246;2024-01-10T05:51:54;103056.47;;;1.53;85.08
80333;BME280;69652;51.864;-2.246;2024-01-10T05:54:19;103052.97;;;1.52;84.85
80333;BME280;69652;51.864;-2.246;2024-01-10T05:56:45;103058.69;;;1.49;85.18
80333;BME280;69652;51.864;-2.246;2024-01-10T05:59:10;103048.16;;;1.48;84.86
80333;BME280;69652;51.864;-2.246;2024-01-10T06:01:37;103050.75;;;1.41;84.95
80333;BME280;69652;51.864;-2.246;2024-01-10T06:04:04;103049.66;;;1.35;84.91
80333;BME280;69652;51.864;-2.246;2024-01-10T06:06:31;103059.88;;;1.32;84.74
80333;BME280;69652;51.864;-2.246;2024-01-10T06:08:57;103050.84;;;1.33;84.95
80333;BME280;69652;51.864;-2.246;2024-01-10T06:11:23;103059.44;;;1.28;85.63
80333;BME280;69652;51.864;-2.246;2024-01-10T06:13:48;103055.63;;;1.23;86.14
80333;BME280;69652;51.864;-2.246;2024-01-10T06:16:14;103062.56;;;1.17;85.63
80333;BME280;69652;51.864;-2.246;2024-01-10T06:18:39;103066.63;;;1.13;85.79
80333;BME280;69652;51.864;-2.246;2024-01-10T06:21:05;103071.31;;;1.11;85.96
80333;BME280;69652;51.864;-2.246;2024-01-10T06:23:31;103068.56;;;1.04;86.09
80333;BME280;69652;51.864;-2.246;2024-01-10T06:25:56;103071.41;;;1.03;85.80
80333;BME280;69652;51.864;-2.246;2024-01-10T06:28:22;103069.09;;;1.00;85.86
80333;BME280;69652;51.864;-2.246;2024-01-10T06:30:49;103073.97;;;0.96;86.62
80333;BME280;69652;51.864;-2.246;2024-01-10T06:33:15;103076.00;;;0.94;86.42
80333;BME280;69652;51.864;-2.246;2024-01-10T06:35:41;103081.72;;;0.91;86.79
80333;BME280;69652;51.864;-2.246;2024-01-10T06:38:11;103072.69;;;0.92;86.94
80333;BME280;69652;51.864;-2.246;2024-01-10T06:40:36;103076.53;;;0.90;86.75
80333;BME280;69652;51.864;-2.246;2024-01-10T06:43:03;103078.72;;;0.86;86.75
80333;BME280;69652;51.864;-2.246;2024-01-10T06:45:29;103072.91;;;0.83;86.45
80333;BME280;69652;51.864;-2.246;2024-01-10T06:47:55;103083.59;;;0.83;86.79
80333;BME280;69652;51.864;-2.246;2024-01-10T06:50:20;103081.31;;;0.80;86.41
80333;BME280;69652;51.864;-2.246;2024-01-10T06:52:47;103082.66;;;0.76;86.56
80333;BME280;69652;51.864;-2.246;2024-01-10T06:55:13;103090.34;;;0.79;87.29
80333;BME280;69652;51.864;-2.246;2024-01-10T06:57:39;103088.84;;;0.76;87.29
80333;BME280;69652;51.864;-2.246;2024-01-10T07:00:05;103090.53;;;0.77;87.22
80333;BME280;69652;51.864;-2.246;2024-01-10T07:02:39;103083.69;;;0.75;87.16
80333;BME280;69652;51.864;-2.246;2024-01-10T07:05:09;103088.69;;;0.78;87.47
80333;BME280;69652;51.864;-2.246;2024-01-10T07:07:34;103091.88;;;0.73;87.20
80333;BME280;69652;51.864;-2.246;2024-01-10T07:10:01;103092.53;;;0.75;87.24
80333;BME280;69652;51.864;-2.246;2024-01-10T07:12:30;103089.19;;;0.73;87.37
80333;BME280;69652;51.864;-2.246;2024-01-10T07:14:56;103092.72;;;0.73;86.67
80333;BME280;69652;51.864;-2.246;2024-01-10T07:17:22;103090.34;;;0.79;87.20
80333;BME280;69652;51.864;-2.246;2024-01-10T07:19:48;103086.00;;;0.78;86.73
80333;BME280;69652;51.864;-2.246;2024-01-10T07:22:14;103088.03;;;0.76;86.56
80333;BME280;69652;51.864;-2.246;2024-01-10T07:24:39;103085.25;;;0.84;87.29
80333;BME280;69652;51.864;-2.246;2024-01-10T07:27:05;103088.78;;;0.84;87.11
80333;BME280;69652;51.864;-2.246;2024-01-10T07:29:32;103090.16;;;0.80;86.99
80333;BME280;69652;51.864;-2.246;2024-01-10T07:31:57;103092.00;;;0.80;86.78
80333;BME280;69652;51.864;-2.246;2024-01-10T07:34:23;103093.84;;;0.79;86.71
80333;BME280;69652;51.864;-2.246;2024-01-10T07:36:48;103089.50;;;0.78;87.11
80333;BME280;69652;51.864;-2.246;2024-01-10T07:39:14;103095.88;;;0.77;87.47
80333;BME280;69652;51.864;-2.246;2024-01-10T07:41:46;103092.34;;;0.77;87.21
80333;BME280;69652;51.864;-2.246;2024-01-10T07:44:11;103104.41;;;0.72;86.60
80333;BME280;69652;51.864;-2.246;2024-01-10T07:46:37;103106.25;;;0.72;86.80
80333;BME280;69652;51.864;-2.246;2024-01-10T07:49:04;103098.22;;;0.72;87.17
80333;BME280;69652;51.864;-2.246;2024-01-10T07:51:30;103102.75;;;0.71;87.24
80333;BME280;69652;51.864;-2.246;2024-01-10T07:53:56;103105.91;;;0.75;87.70
80333;BME280;69652;51.864;-2.246;2024-01-10T07:56:22;103114.47;;;0.70;87.05
80333;BME280;69652;51.864;-2.246;2024-01-10T07:58:47;103110.97;;;0.70;86.93
80333;BME280;69652;51.864;-2.246;2024-01-10T08:01:15;103120.81;;;0.69;87.11
80333;BME280;69652;51.864;-2.246;2024-01-10T08:03:40;103123.13;;;0.72;87.47
80333;BME280;69652;51.864;-2.246;2024-01-10T08:06:06;103117.16;;;0.70;87.33
80333;BME280;69652;51.864;-2.246;2024-01-10T08:08:32;103123.50;;;0.69;87.41
80333;BME280;69652;51.864;-2.246;2024-01-10T08:10:58;103120.00;;;0.69;87.27
80333;BME280;69652;51.864;-2.246;2024-01-10T08:13:24;103125.34;;;0.69;87.40
80333;BME280;69652;51.864;-2.246;2024-01-10T08:15:49;103128.00;;;0.69;87.18
80333;BME280;69652;51.864;-2.246;2024-01-10T08:18:15;103125.16;;;0.70;87.29
80333;BME280;69652;51.864;-2.246;2024-01-10T08:20:40;103130.31;;;0.72;87.29
80333;BME280;69652;51.864;-2.246;2024-01-10T08:23:06;103123.44;;;0.78;87.41
80333;BME280;69652;51.864;-2.246;2024-01-10T08:25:31;103125.75;;;0.81;87.27
80333;BME280;69652;51.864;-2.246;2024-01-10T08:27:57;103129.25;;;0.81;86.96
80333;BME280;69652;51.864;-2.246;2024-01-10T08:30:23;103130.72;;;0.84;86.69
80333;BME280;69652;51.864;-2.246;2024-01-10T08:32:49;103130.72;;;0.84;86.86
80333;BME280;69652;51.864;-2.246;2024-01-10T08:35:15;103130.66;;;0.92;86.81
80333;BME280;69652;51.864;-2.246;2024-01-10T08:37:41;103124.94;;;0.95;86.68
80333;BME280;69652;51.864;-2.246;2024-01-10T08:40:10;103128.91;;;0.99;86.51
80333;BME280;69652;51.864;-2.246;2024-01-10T08:42:41;103140.28;;;1.01;86.44
80333;BME280;69652;51.864;-2.246;2024-01-10T08:45:08;103136.59;;;1.02;85.86
80333;BME280;69652;51.864;-2.246;2024-01-10T08:47:35;103134.84;;;1.09;85.87
80333;BME280;69652;51.864;-2.246;2024-01-10T08:50:03;103140.50;;;1.14;85.64
80333;BME280;69652;51.864;-2.246;2024-01-10T08:52:31;103131.63;;;1.14;85.53
80333;BME280;69652;51.864;-2.246;2024-01-10T08:54:56;103128.13;;;1.13;85.43
80333;BME280;69652;51.864;-2.246;2024-01-10T08:57:22;103127.94;;;1.15;85.61
80333;BME280;69652;51.864;-2.246;2024-01-10T08:59:48;103130.44;;;1.16;85.12
80333;BME280;69652;51.864;-2.246;2024-01-10T09:02:14;103129.63;;;1.16;85.75
80333;BME280;69652;51.864;-2.246;2024-01-10T09:04:39;103131.47;;;1.15;85.71
80333;BME280;69652;51.864;-2.246;2024-01-10T09:07:07;103127.13;;;1.14;85.61
80333;BME280;69652;51.864;-2.246;2024-01-10T09:09:34;103128.13;;;1.13;85.96
80333;BME280;69652;51.864;-2.246;2024-01-10T09:12:00;103130.16;;;1.11;85.87
80333;BME280;69652;51.864;-2.246;2024-01-10T09:14:25;103130.81;;;1.13;85.73
80333;BME280;69652;51.864;-2.246;2024-01-10T09:16:51;103135.06;;;1.22;85.89
80333;BME280;69652;51.864;-2.246;2024-01-10T09:19:17;103128.59;;;1.31;85.57
80333;BME280;69652;51.864;-2.246;2024-01-10T09:21:43;103130.91;;;1.34;85.22
80333;BME280;69652;51.864;-2.246;2024-01-10T09:24:08;103128.06;;;1.36;85.09
80333;BME280;69652;51.864;-2.246;2024-01-10T09:26:36;103132.22;;;1.38;84.70
80333;BME280;69652;51.864;-2.246;2024-01-10T09:29:02;103127.13;;;1.43;85.08
80333;BME280;69652;51.864;-2.246;2024-01-10T09:31:27;103129.09;;;1.50;85.17
80333;BME280;69652;51.864;-2.246;2024-01-10T09:33:53;103127.69;;;1.54;84.63
80333;BME280;69652;51.864;-2.246;2024-01-10T09:36:19;103120.97;;;1.58;84.70
80333;BME280;69652;51.864;-2.246;2024-01-10T09:38:44;103120.78;;;1.59;84.77
80333;BME280;69652;51.864;-2.246;2024-01-10T09:41:11;103117.09;;;1.60;84.07
80333;BME280;69652;51.864;-2.246;2024-01-10T09:43:38;103126.63;;;1.63;83.79
80333;BME280;69652;51.864;-2.246;2024-01-10T09:46:06;103119.03;;;1.66;84.33
80333;BME280;69652;51.864;-2.246;2024-01-10T09:48:32;103124.66;;;1.71;84.20
80333;BME280;69652;51.864;-2.246;2024-01-10T09:50:58;103124.56;;;1.79;84.26
80333;BME280;69652;51.864;-2.246;2024-01-10T09:53:26;103127.34;;;1.86;84.16
80333;BME280;69652;51.864;-2.246;2024-01-10T09:55:52;103126.38;;;1.94;83.76
80333;BME280;69652;51.864;-2.246;2024-01-10T09:58:23;103122.16;;;1.99;83.47
80333;BME280;69652;51.864;-2.246;2024-01-10T10:00:50;103117.03;;;2.04;83.28
80333;BME280;69652;51.864;-2.246;2024-01-10T10:03:17;103126.38;;;2.08;83.25
80333;BME280;69652;51.864;-2.246;2024-01-10T10:05:43;103124.59;;;2.15;83.34
80333;BME280;69652;51.864;-2.246;2024-01-10T10:08:11;103132.72;;;2.22;82.21
80333;BME280;69652;51.864;-2.246;2024-01-10T10:10:38;103136.56;;;2.34;82.07
80333;BME280;69652;51.864;-2.246;2024-01-10T10:13:09;103123.00;;;2.36;82.03
80333;BME280;69652;51.864;-2.246;2024-01-10T10:15:38;103132.66;;;2.37;81.89
80333;BME280;69652;51.864;-2.246;2024-01-10T10:18:04;103128.13;;;2.37;82.40
80333;BME280;69652;51.864;-2.246;2024-01-10T10:20:30;103139.31;;;2.41;82.21
80333;BME280;69652;51.864;-2.246;2024-01-10T10:23:08;103131.13;;;2.49;81.20
80333;BME280;69652;51.864;-2.246;2024-01-10T10:25:44;103136.91;;;2.67;80.95
80333;BME280;69652;51.864;-2.246;2024-01-10T10:28:10;103135.41;;;2.86;80.86
80333;BME280;69652;51.864;-2.246;2024-01-10T10:30:36;103139.69;;;3.02;79.81
80333;BME280;69652;51.864;-2.246;2024-01-10T10:33:02;103142.88;;;3.12;79.22
80333;BME280;69652;51.864;-2.246;2024-01-10T10:35:28;103145.28;;;3.28;79.78
80333;BME280;69652;51.864;-2.246;2024-01-10T10:37:54;103142.09;;;3.46;78.28
80333;BME280;69652;51.864;-2.246;2024-01-10T10:40:20;103139.84;;;3.49;77.72
80333;BME280;69652;51.864;-2.246;2024-01-10T10:42:54;103133.81;;;3.41;78.19
80333;BME280;69652;51.864;-2.246;2024-01-10T10:45:21;103139.47;;;3.24;78.10
80333;BME280;69652;51.864;-2.246;2024-01-10T10:47:58;103136.94;;;3.16;78.47
80333;BME280;69652;51.864;-2.246;2024-01-10T10:50:28;103146.84;;;3.16;78.99
80333;BME280;69652;51.864;-2.246;2024-01-10T10:52:55;103147.75;;;3.02;79.27
80333;BME280;69652;51.864;-2.246;2024-01-10T10:55:22;103147.16;;;2.85;79.12
80333;BME280;69652;51.864;-2.246;2024-01-10T10:57:49;103142.59;;;2.79;79.91
80333;BME280;69652;51.864;-2.246;2024-01-10T11:00:19;103141.13;;;2.76;80.57
80333;BME280;69652;51.864;-2.246;2024-01-10T11:02:46;103137.41;;;2.77;80.68
80333;BME280;69652;51.864;-2.246;2024-01-10T11:05:12;103138.69;;;2.81;79.99
80333;BME280;69652;51.864;-2.246;2024-01-10T11:07:41;103135.81;;;3.04;80.69
80333;BME280;69652;51.864;-2.246;2024-01-10T11:10:16;103141.84;;;3.13;79.39
80333;BME280;69652;51.864;-2.246;2024-01-10T11:15:38;103130.00;;;3.63;78.00
80333;BME280;69652;51.864;-2.246;2024-01-10T11:23:43;103127.63;;;4.49;75.58
80333;BME280;69652;51.864;-2.246;2024-01-10T11:26:10;103121.06;;;4.58;75.30
80333;BME280;69652;51.864;-2.246;2024-01-10T11:28:40;103121.91;;;4.78;74.48
80333;BME280;69652;51.864;-2.246;2024-01-10T11:31:08;103118.59;;;5.29;72.67
80333;BME280;69652;51.864;-2.246;2024-01-10T11:33:36;103124.16;;;5.34;71.68
80333;BME280;69652;51.864;-2.246;2024-01-10T11:38:58;103109.44;;;5.43;72.00
80333;BME280;69652;51.864;-2.246;2024-01-10T11:41:39;103114.63;;;5.38;71.86
80333;BME280;69652;51.864;-2.246;2024-01-10T11:46:42;103121.50;;;4.94;73.86
80333;BME280;69652;51.864;-2.246;2024-01-10T11:49:12;103113.41;;;4.88;74.34
80333;BME280;69652;51.864;-2.246;2024-01-10T11:51:39;103114.47;;;4.93;74.12
80333;BME280;69652;51.864;-2.246;2024-01-10T11:54:06;103107.22;;;5.00;74.40
80333;BME280;69652;51.864;-2.246;2024-01-10T11:56:40;103111.56;;;4.95;74.53
80333;BME280;69652;51.864;-2.246;2024-01-10T11:59:08;103105.56;;;4.93;72.76
80333;BME280;69652;51.864;-2.246;2024-01-10T12:01:36;103099.75;;;5.02;74.43
80333;BME280;69652;51.864;-2.246;2024-01-10T12:04:03;103092.31;;;5.04;72.87
80333;BME280;69652;51.864;-2.246;2024-01-10T12:06:34;103084.41;;;5.23;73.88
80333;BME280;69652;51.864;-2.246;2024-01-10T12:09:00;103080.41;;;5.52;72.28
80333;BME280;69652;51.864;-2.246;2024-01-10T12:11:30;103073.13;;;5.59;71.90
80333;BME280;69652;51.864;-2.246;2024-01-10T12:13:56;103066.53;;;5.48;71.87
80333;BME280;69652;51.864;-2.246;2024-01-10T12:16:23;103074.28;;;5.18;72.31
80333;BME280;69652;51.864;-2.246;2024-01-10T12:18:49;103078.41;;;5.07;73.95
80333;BME280;69652;51.864;-2.246;2024-01-10T12:21:14;103072.63;;;5.04;74.73
80333;BME280;69652;51.864;-2.246;2024-01-10T12:23:40;103068.69;;;5.00;73.55
80333;BME280;69652;51.864;-2.246;2024-01-10T12:26:09;103070.56;;;5.06;75.08
80333;BME280;69652;51.864;-2.246;2024-01-10T12:28:38;103058.34;;;5.03;74.97
80333;BME280;69652;51.864;-2.246;2024-01-10T12:31:04;103056.47;;;5.11;74.35
80333;BME280;69652;51.864;-2.246;2024-01-10T12:33:34;103062.47;;;5.13;73.31
80333;BME280;69652;51.864;-2.246;2024-01-10T12:36:09;103066.84;;;5.00;74.63
80333;BME280;69652;51.864;-2.246;2024-01-10T12:38:36;103068.09;;;5.04;73.89
80333;BME280;69652;51.864;-2.246;2024-01-10T12:41:03;103045.91;;;5.09;74.17
80333;BME280;69652;51.864;-2.246;2024-01-10T12:43:30;103055.66;;;5.17;73.40
80333;BME280;69652;51.864;-2.246;2024-01-10T12:46:06;103052.94;;;5.23;74.69
80333;BME280;69652;51.864;-2.246;2024-01-10T12:48:32;103055.63;;;5.23;74.49
80333;BME280;69652;51.864;-2.246;2024-01-10T12:51:04;103051.09;;;5.17;74.93
80333;BME280;69652;51.864;-2.246;2024-01-10T12:56:03;103039.50;;;5.10;73.96
80333;BME280;69652;51.864;-2.246;2024-01-10T12:58:30;103029.53;;;5.24;73.64
80333;BME280;69652;51.864;-2.246;2024-01-10T13:00:56;103036.53;;;5.31;73.68
80333;BME280;69652;51.864;-2.246;2024-01-10T13:03:22;103030.72;;;5.34;74.26